Time;durP1;ratioP1;P1;durP2;ratioP2;P2;SDS_P1;SDS_P2;PMS_P1;PMS_P2;Temp;Humidity;BMP_temperature;BMP_pressure;BME280_temperature;BME280_humidity;BME280_pressure;Samples;Min_cycle;Max_cycle;Signal;HPM_P1;HPM_P2
2022/01/01 00:00:14;;;;;;;6.20;4.70;;;;;;99916.98;;;;106984;1278;63937;-27
2022/01/01 00:03:02;;;;;;;7.40;5.00;;;;;;99919.01;;;;106834;1279;63957;-27
2022/01/01 00:05:29;;;;;;;6.80;4.70;;;;;;99921.46;;;;106909;1279;64057;-27
2022/01/01 00:07:57;;;;;;;7.40;4.90;;;;;;99922.83;;;;107024;1277;63947;-28
2022/01/01 00:10:24;;;;;;;6.60;4.50;;;;;;99926.73;;;;107004;1278;65341;-28
2022/01/01 00:12:52;;;;;;;6.30;4.50;;;;;;99929.67;;;;106897;1278;64172;-28
2022/01/01 00:15:20;;;;;;;6.70;4.70;;;;;;99930.56;;;;106976;1277;63906;-26
2022/01/01 00:17:48;;;;;;;6.90;4.50;;;;;;99930.62;;;;106975;1277;64080;-29
2022/01/01 00:20:16;;;;;;;7.20;4.50;;;;;;99934.85;;;;107026;1277;64079;-28
2022/01/01 00:22:44;;;;;;;5.50;3.80;;;;;;99939.54;;;;107024;1277;64962;-28
2022/01/01 00:25:13;;;;;;;6.00;4.00;;;;;;99942.92;;;;107022;1277;63951;-41
2022/01/01 00:27:40;;;;;;;6.80;4.40;;;;;;99946.53;;;;106947;1279;63964;-41
2022/01/01 00:30:09;;;;;;;6.00;4.10;;;;;;99951.84;;;;107000;1277;64082;-43
2022/01/01 00:32:37;;;;;;;6.10;3.80;;;;;;99960.96;;;;106998;1277;63954;-41
2022/01/01 00:35:06;;;;;;;6.50;4.20;;;;;;99961.39;;;;107033;1278;65156;-42
2022/01/01 00:37:33;;;;;;;5.90;3.80;;;;;;99963.61;;;;106999;1278;63942;-47
2022/01/01 00:40:01;;;;;;;6.10;4.20;;;;;;99968.27;;;;107010;1277;64064;-28
2022/01/01 00:42:28;;;;;;;5.50;3.80;;;;;;99971.63;;;;106980;1277;64028;-28
2022/01/01 00:44:55;;;;;;;6.40;4.20;;;;;;99972.23;;;;107029;1277;64065;-28
2022/01/01 00:47:22;;;;;;;5.50;3.90;;;;;;99979.45;;;;107013;1278;65639;-27
2022/01/01 00:49:49;;;;;;;6.50;3.90;;;;;;99984.27;;;;106951;1278;64150;-27
2022/01/01 00:52:17;;;;;;;5.90;4.10;;;;;;99986.32;;;;106977;1277;63923;-32
2022/01/01 00:54:44;;;;;;;7.90;4.00;;;;;;99991.32;;;;106927;1278;64058;-42
2022/01/01 00:57:11;;;;;;;6.20;3.90;;;;;;99994.89;;;;107009;1277;63899;-41
2022/01/01 00:59:39;;;;;;;7.50;4.30;;;;;;100000.14;;;;107062;1278;66526;-42
2022/01/01 01:02:06;;;;;;;7.40;4.10;;;;;;100005.10;;;;106335;1277;945742;-41
2022/01/01 01:04:33;;;;;;;7.50;4.20;;;;;;100007.45;;;;106980;1277;64093;-42
2022/01/01 01:07:01;;;;;;;7.70;4.40;;;;;;100014.25;;;;106966;1277;64073;-42
2022/01/01 01:09:28;;;;;;;6.60;4.00;;;;;;100020.98;;;;106959;1279;65190;-28
2022/01/01 01:11:56;;;;;;;6.30;4.20;;;;;;100029.64;;;;106887;1279;65157;-27
2022/01/01 01:14:26;;;;;;;6.50;4.20;;;;;;100036.60;;;;106920;1278;61462;-38
2022/01/01 01:16:55;;;;;;;5.90;3.50;;;;;;100039.61;;;;106907;1278;64035;-27
2022/01/01 01:19:22;;;;;;;7.70;4.30;;;;;;100038.67;;;;106997;1277;63929;-42
2022/01/01 01:21:51;;;;;;;6.40;3.60;;;;;;100040.16;;;;107008;1278;63921;-41
2022/01/01 01:24:19;;;;;;;6.50;3.60;;;;;;100040.63;;;;107007;1278;65720;-28
2022/01/01 01:26:49;;;;;;;7.00;4.20;;;;;;100038.75;;;;107024;1278;63955;-27
2022/01/01 01:29:19;;;;;;;6.00;3.90;;;;;;100040.59;;;;106997;1277;64042;-44
2022/01/01 01:31:47;;;;;;;7.00;3.60;;;;;;100043.34;;;;106916;1278;64062;-42
2022/01/01 01:34:14;;;;;;;5.40;3.70;;;;;;100046.45;;;;106936;1279;64011;-28
2022/01/01 01:36:41;;;;;;;5.90;3.60;;;;;;100055.43;;;;106908;1279;66580;-27
2022/01/01 01:39:09;;;;;;;6.30;3.60;;;;;;100056.84;;;;106988;1278;64808;-27
2022/01/01 01:41:36;;;;;;;5.60;3.30;;;;;;100052.02;;;;106900;1279;63952;-30
2022/01/01 01:44:29;;;;;;;7.80;3.90;;;;;;100051.70;;;;107031;1278;64024;-42
2022/01/01 01:46:59;;;;;;;6.80;3.60;;;;;;100055.13;;;;107008;1277;64058;-42
2022/01/01 01:49:29;;;;;;;6.10;3.50;;;;;;100057.91;;;;107004;1278;65717;-42
2022/01/01 01:51:57;;;;;;;6.80;3.40;;;;;;100060.92;;;;107014;1277;63952;-41
2022/01/01 01:54:24;;;;;;;6.50;3.60;;;;;;100061.46;;;;107033;1277;64109;-31
2022/01/01 01:56:51;;;;;;;6.80;3.60;;;;;;100061.27;;;;106986;1278;63952;-28
2022/01/01 01:59:18;;;;;;;6.20;3.50;;;;;;100064.19;;;;106957;1279;63933;-29
2022/01/01 02:01:46;;;;;;;6.10;3.50;;;;;;100066.66;;;;106984;1277;66258;-40
2022/01/01 02:04:14;;;;;;;4.90;3.30;;;;;;100069.60;;;;106883;1279;64080;-42
2022/01/01 02:06:41;;;;;;;5.70;3.30;;;;;;100066.38;;;;106988;1278;63959;-44
2022/01/01 02:09:11;;;;;;;5.70;3.30;;;;;;100067.02;;;;106975;1278;63968;-31
2022/01/01 02:11:39;;;;;;;5.50;3.40;;;;;;100072.87;;;;107009;1277;64067;-26
2022/01/01 02:14:13;;;;;;;6.70;3.60;;;;;;100077.99;;;;107025;1278;65035;-27
2022/01/01 02:19:59;;;;;;;6.70;3.40;;;;;;100075.91;;;;106925;1278;63952;-28
2022/01/01 02:22:48;;;;;;;5.40;3.20;;;;;;100069.97;;;;106984;1278;64048;-27
2022/01/01 02:25:18;;;;;;;5.30;3.10;;;;;;100081.56;;;;106912;1278;64140;-38
2022/01/01 02:27:46;;;;;;;5.20;3.20;;;;;;100093.05;;;;106913;1279;65595;-28
2022/01/01 02:30:15;;;;;;;5.60;3.30;;;;;;100099.05;;;;106938;1279;63962;-31
2022/01/01 02:32:43;;;;;;;5.50;3.10;;;;;;100097.67;;;;106915;1278;64077;-28
2022/01/01 02:35:13;;;;;;;5.00;3.20;;;;;;100095.04;;;;106978;1277;64043;-26
2022/01/01 02:37:41;;;;;;;4.60;2.60;;;;;;100096.69;;;;106968;1278;64048;-28
2022/01/01 02:40:10;;;;;;;5.40;3.10;;;;;;100099.33;;;;107012;1278;64057;-41
2022/01/01 02:42:39;;;;;;;5.30;3.10;;;;;;100107.08;;;;106997;1278;64041;-43
2022/01/01 02:45:09;;;;;;;5.50;3.10;;;;;;100113.16;;;;106989;1278;64054;-27
2022/01/01 02:47:37;;;;;;;6.10;3.40;;;;;;100116.45;;;;106972;1278;63937;-27
2022/01/01 02:50:05;;;;;;;5.70;2.90;;;;;;100109.55;;;;107023;1278;63187;-42
2022/01/01 02:52:33;;;;;;;5.00;2.90;;;;;;100110.40;;;;106932;1278;65365;-42
2022/01/01 02:55:01;;;;;;;5.40;3.10;;;;;;100109.20;;;;107001;1278;64030;-41
2022/01/01 02:57:28;;;;;;;5.50;3.00;;;;;;100111.86;;;;106911;1277;63957;-44
2022/01/01 02:59:56;;;;;;;6.10;3.10;;;;;;100118.06;;;;106980;1277;63916;-27
2022/01/01 03:02:23;;;;;;;5.60;2.90;;;;;;100120.91;;;;106997;1277;64074;-27
2022/01/01 03:04:50;;;;;;;6.50;3.10;;;;;;100116.95;;;;106923;1277;65661;-28
2022/01/01 03:07:18;;;;;;;5.70;2.80;;;;;;100117.64;;;;106937;1278;64070;-27
2022/01/01 03:09:46;;;;;;;6.20;3.20;;;;;;100131.51;;;;106991;1277;64082;-27
2022/01/01 03:12:15;;;;;;;5.50;3.10;;;;;;100134.84;;;;106988;1277;64027;-27
2022/01/01 03:14:42;;;;;;;5.40;2.90;;;;;;100133.98;;;;107016;1278;63922;-27
2022/01/01 03:17:10;;;;;;;4.40;2.50;;;;;;100134.98;;;;106917;1279;64086;-27
2022/01/01 03:19:38;;;;;;;4.90;3.00;;;;;;100136.27;;;;106984;1277;63171;-41
2022/01/01 03:22:05;;;;;;;5.80;3.20;;;;;;100143.35;;;;107030;1277;64001;-43
2022/01/01 03:24:33;;;;;;;5.00;3.30;;;;;;100155.46;;;;107021;1277;63927;-28
2022/01/01 03:27:02;;;;;;;5.80;3.10;;;;;;100151.70;;;;107007;1277;63947;-28
2022/01/01 03:29:32;;;;;;;5.70;3.00;;;;;;100149.42;;;;107023;1278;65229;-42
2022/01/01 03:31:59;;;;;;;5.30;3.10;;;;;;100154.54;;;;106986;1277;63938;-41
2022/01/01 03:34:27;;;;;;;5.00;2.80;;;;;;100146.20;;;;106995;1277;65165;-28
2022/01/01 03:36:54;;;;;;;6.60;3.40;;;;;;100142.33;;;;106975;1277;64049;-28
2022/01/01 03:39:27;;;;;;;5.60;3.20;;;;;;100153.90;;;;106937;1279;64009;-41
2022/01/01 03:41:54;;;;;;;5.70;2.80;;;;;;100162.52;;;;107021;1277;66366;-42
2022/01/01 03:44:22;;;;;;;4.90;2.60;;;;;;100161.98;;;;106969;1279;64040;-43
2022/01/01 03:46:49;;;;;;;5.20;2.50;;;;;;100162.38;;;;106985;1277;63950;-41
2022/01/01 03:49:16;;;;;;;4.80;2.70;;;;;;100164.79;;;;107004;1278;64069;-41
2022/01/01 03:51:43;;;;;;;4.70;2.60;;;;;;100169.70;;;;106978;1277;63955;-42
2022/01/01 03:54:12;;;;;;;5.30;2.80;;;;;;100182.89;;;;107008;1277;67379;-41
2022/01/01 03:56:39;;;;;;;5.40;2.80;;;;;;100192.69;;;;106932;1277;64092;-41
2022/01/01 03:59:06;;;;;;;4.90;2.60;;;;;;100198.48;;;;106995;1278;63917;-41
2022/01/01 04:01:33;;;;;;;4.30;2.30;;;;;;100203.20;;;;106925;1279;63932;-41
2022/01/01 04:04:01;;;;;;;4.70;2.70;;;;;;100205.72;;;;107019;1277;64081;-28
2022/01/01 04:06:28;;;;;;;5.10;2.40;;;;;;100209.88;;;;107034;1278;66372;-29
2022/01/01 04:08:55;;;;;;;4.80;2.50;;;;;;100213.87;;;;107021;1277;64081;-28
2022/01/01 04:11:22;;;;;;;4.90;2.40;;;;;;100216.11;;;;107012;1277;63883;-27
2022/01/01 04:13:49;;;;;;;4.50;2.40;;;;;;100212.99;;;;107001;1277;63972;-41
2022/01/01 04:16:18;;;;;;;4.20;2.40;;;;;;100210.51;;;;107022;1279;64195;-41
2022/01/01 04:18:45;;;;;;;4.90;2.50;;;;;;100219.83;;;;106995;1278;65162;-28
2022/01/01 04:21:15;;;;;;;4.70;2.30;;;;;;100228.66;;;;106945;1279;64054;-27
2022/01/01 04:23:45;;;;;;;4.60;2.60;;;;;;100230.05;;;;106940;1279;64052;-41
2022/01/01 04:26:13;;;;;;;5.30;2.40;;;;;;100228.26;;;;106998;1279;63922;-42
2022/01/01 04:28:43;;;;;;;4.60;2.20;;;;;;100229.33;;;;106929;1278;64071;-42
2022/01/01 04:31:14;;;;;;;4.30;2.20;;;;;;100225.76;;;;107005;1279;65232;-42
2022/01/01 04:33:42;;;;;;;4.50;2.40;;;;;;100228.11;;;;107045;1278;64081;-40
2022/01/01 04:36:10;;;;;;;5.00;2.10;;;;;;100224.15;;;;107038;1278;64010;-40
2022/01/01 04:38:40;;;;;;;4.10;2.30;;;;;;100222.27;;;;107022;1278;63817;-29
2022/01/01 04:41:14;;;;;;;4.70;2.20;;;;;;100221.04;;;;106954;1279;63929;-28
2022/01/01 04:43:43;;;;;;;4.10;2.20;;;;;;100224.25;;;;106967;1278;65466;-28
2022/01/01 04:46:10;;;;;;;4.30;2.50;;;;;;100229.63;;;;107051;1278;63884;-28
2022/01/01 04:48:37;;;;;;;4.90;2.50;;;;;;100229.84;;;;107024;1278;63190;-28
2022/01/01 04:51:07;;;;;;;4.50;2.30;;;;;;100241.42;;;;106905;1279;64032;-28
2022/01/01 04:53:36;;;;;;;3.90;2.30;;;;;;100251.12;;;;106951;1279;63988;-27
2022/01/01 04:56:07;;;;;;;4.30;2.20;;;;;;100256.80;;;;107022;1278;63942;-27
2022/01/01 04:58:35;;;;;;;4.00;2.20;;;;;;100264.09;;;;106993;1278;64154;-27
2022/01/01 05:01:03;;;;;;;4.00;2.00;;;;;;100266.91;;;;106978;1277;64039;-28
2022/01/01 05:03:30;;;;;;;4.70;2.10;;;;;;100263.17;;;;106986;1279;64056;-41
2022/01/01 05:05:57;;;;;;;4.50;2.00;;;;;;100264.77;;;;106999;1277;62790;-42
2022/01/01 05:08:24;;;;;;;4.10;2.00;;;;;;100264.23;;;;107014;1279;65685;-40
2022/01/01 05:10:51;;;;;;;4.60;1.70;;;;;;100274.87;;;;107002;1279;64090;-40
2022/01/01 05:13:19;;;;;;;4.80;2.20;;;;;;100281.16;;;;106996;1277;64089;-41
2022/01/01 05:15:49;;;;;;;3.90;2.00;;;;;;100279.52;;;;106895;1279;63929;-41
2022/01/01 05:18:17;;;;;;;4.20;2.00;;;;;;100279.70;;;;107002;1278;63958;-40
2022/01/01 05:20:44;;;;;;;3.80;2.00;;;;;;100286.75;;;;106999;1278;65323;-40
2022/01/01 05:23:12;;;;;;;3.80;2.00;;;;;;100298.48;;;;106917;1279;64144;-40
2022/01/01 05:25:39;;;;;;;4.00;1.90;;;;;;100300.11;;;;106882;1279;64084;-41
2022/01/01 05:28:07;;;;;;;3.90;2.00;;;;;;100303.11;;;;106985;1278;63961;-40
2022/01/01 05:30:34;;;;;;;4.10;1.90;;;;;;100310.19;;;;106922;1279;64049;-42
2022/01/01 05:33:04;;;;;;;3.60;1.50;;;;;;100314.46;;;;107019;1279;65074;-39
2022/01/01 05:35:32;;;;;;;3.70;1.60;;;;;;100318.08;;;;106995;1278;63955;-27
2022/01/01 05:37:59;;;;;;;4.40;2.10;;;;;;100321.86;;;;106861;1281;63930;-27
2022/01/01 05:40:26;;;;;;;4.20;1.80;;;;;;100329.30;;;;106885;1279;63950;-41
2022/01/01 05:42:53;;;;;;;3.50;1.60;;;;;;100327.50;;;;107005;1278;63960;-42
2022/01/01 05:45:21;;;;;;;3.50;1.50;;;;;;100333.90;;;;106942;1278;63963;-27
2022/01/01 05:47:48;;;;;;;3.90;1.70;;;;;;100339.37;;;;106980;1278;64190;-28
2022/01/01 05:50:17;;;;;;;3.40;1.60;;;;;;100339.52;;;;106997;1279;63966;-42
2022/01/01 05:52:44;;;;;;;3.60;1.90;;;;;;100338.34;;;;106980;1279;63944;-41
2022/01/01 05:55:12;;;;;;;3.30;1.50;;;;;;100339.65;;;;107013;1278;64164;-41
2022/01/01 05:57:39;;;;;;;4.00;1.70;;;;;;100342.95;;;;106995;1279;66572;-40
2022/01/01 06:00:07;;;;;;;3.40;1.50;;;;;;100342.76;;;;107017;1279;64013;-27
2022/01/01 06:02:42;;;;;;;3.60;1.70;;;;;;100342.20;;;;106991;1279;63930;-27
2022/01/01 06:05:10;;;;;;;3.60;1.50;;;;;;100343.88;;;;106917;1278;63931;-40
2022/01/01 06:07:38;;;;;;;3.60;1.40;;;;;;100341.91;;;;107036;1277;64026;-40
2022/01/01 06:10:06;;;;;;;3.70;1.70;;;;;;100344.75;;;;107036;1278;64393;-41
2022/01/01 06:12:33;;;;;;;3.40;1.40;;;;;;100352.60;;;;106984;1279;63958;-42
2022/01/01 06:15:00;;;;;;;3.40;1.50;;;;;;100355.55;;;;106917;1279;64119;-27
2022/01/01 06:17:27;;;;;;;3.80;1.50;;;;;;100354.27;;;;106986;1278;64043;-27
2022/01/01 06:19:54;;;;;;;3.60;1.40;;;;;;100355.04;;;;106998;1279;64049;-41
2022/01/01 06:22:21;;;;;;;3.40;1.50;;;;;;100361.47;;;;106927;1279;65174;-41
2022/01/01 06:24:49;;;;;;;3.70;1.60;;;;;;100364.21;;;;106985;1277;64050;-27
2022/01/01 06:27:16;;;;;;;3.30;1.50;;;;;;100363.45;;;;107024;1278;63920;-27
2022/01/01 06:29:43;;;;;;;3.40;1.50;;;;;;100370.80;;;;107011;1279;63932;-41
2022/01/01 06:32:10;;;;;;;3.60;1.50;;;;;;100367.43;;;;107018;1277;63962;-40
2022/01/01 06:34:37;;;;;;;3.30;1.60;;;;;;100373.84;;;;107017;1278;63988;-41
2022/01/01 06:37:04;;;;;;;3.60;1.50;;;;;;100381.52;;;;106979;1278;63777;-43
2022/01/01 06:39:31;;;;;;;3.60;1.60;;;;;;100387.21;;;;106986;1278;63048;-28
2022/01/01 06:41:58;;;;;;;3.70;1.50;;;;;;100388.06;;;;106963;1279;64029;-28
2022/01/01 06:44:26;;;;;;;3.50;1.40;;;;;;100387.38;;;;106971;1278;64044;-41
2022/01/01 06:46:53;;;;;;;3.10;1.50;;;;;;100388.95;;;;106983;1278;65184;-42
2022/01/01 06:49:20;;;;;;;3.20;1.40;;;;;;100382.56;;;;107005;1278;63928;-27
2022/01/01 06:51:47;;;;;;;3.20;1.20;;;;;;100384.96;;;;106990;1278;63929;-27
2022/01/01 06:54:15;;;;;;;3.40;1.40;;;;;;100384.34;;;;106996;1279;63953;-42
2022/01/01 06:56:42;;;;;;;3.70;1.60;;;;;;100389.31;;;;106997;1279;64048;-42
2022/01/01 06:59:09;;;;;;;2.90;1.40;;;;;;100391.40;;;;106953;1278;65318;-28
2022/01/01 07:01:37;;;;;;;3.30;1.40;;;;;;100397.72;;;;106971;1278;64094;-28
2022/01/01 07:04:05;;;;;;;3.20;1.60;;;;;;100404.77;;;;106983;1278;63936;-28
2022/01/01 07:06:33;;;;;;;3.20;1.40;;;;;;100410.59;;;;106982;1278;64372;-28
2022/01/01 07:09:01;;;;;;;3.40;1.20;;;;;;100414.14;;;;106996;1279;64033;-28
2022/01/01 07:11:28;;;;;;;3.40;1.40;;;;;;100422.50;;;;106988;1279;66139;-28
2022/01/01 07:13:56;;;;;;;3.20;1.40;;;;;;100427.83;;;;106982;1279;63941;-40
2022/01/01 07:16:23;;;;;;;2.60;1.20;;;;;;100426.14;;;;106928;1278;63984;-42
2022/01/01 07:18:50;;;;;;;3.10;1.50;;;;;;100428.59;;;;106959;1278;64075;-41
2022/01/01 07:21:17;;;;;;;3.70;1.40;;;;;;100423.54;;;;106946;1279;64037;-40
2022/01/01 07:23:44;;;;;;;2.90;1.20;;;;;;100427.77;;;;106973;1278;65310;-41
2022/01/01 07:26:12;;;;;;;2.50;1.40;;;;;;100426.50;;;;106984;1279;63946;-40
2022/01/01 07:28:39;;;;;;;2.90;1.30;;;;;;100427.73;;;;106976;1279;64067;-41
2022/01/01 07:31:06;;;;;;;3.00;1.10;;;;;;100429.63;;;;106972;1279;64173;-41
2022/01/01 07:33:33;;;;;;;3.00;1.40;;;;;;100428.59;;;;107007;1279;63945;-43
2022/01/01 07:36:00;;;;;;;3.00;1.30;;;;;;100430.53;;;;106920;1279;64178;-41
2022/01/01 07:38:27;;;;;;;3.20;1.10;;;;;;100423.06;;;;106917;1279;63987;-27
2022/01/01 07:40:55;;;;;;;2.90;1.20;;;;;;100423.66;;;;106930;1278;63982;-28
2022/01/01 07:43:23;;;;;;;3.60;1.40;;;;;;100427.20;;;;106971;1278;64080;-27
2022/01/01 07:45:50;;;;;;;2.70;1.10;;;;;;100437.82;;;;107022;1279;63937;-27
2022/01/01 07:48:17;;;;;;;2.80;1.20;;;;;;100437.66;;;;107002;1279;65326;-50
2022/01/01 07:50:44;;;;;;;3.80;1.40;;;;;;100439.38;;;;106933;1278;63962;-42
2022/01/01 07:53:11;;;;;;;2.90;1.20;;;;;;100443.89;;;;106945;1278;63927;-43
2022/01/01 07:55:39;;;;;;;2.90;1.40;;;;;;100444.66;;;;106971;1277;64044;-42
2022/01/01 07:58:08;;;;;;;2.50;1.10;;;;;;100451.26;;;;106972;1279;64262;-27
2022/01/01 08:00:35;;;;;;;3.30;1.30;;;;;;100445.63;;;;106986;1279;64055;-40
2022/01/01 08:03:02;;;;;;;2.80;1.00;;;;;;100453.48;;;;106934;1279;64039;-28
2022/01/01 08:05:29;;;;;;;3.00;1.20;;;;;;100454.27;;;;106947;1279;63936;-29
2022/01/01 08:07:56;;;;;;;2.30;1.00;;;;;;100462.33;;;;106955;1278;63923;-28
2022/01/01 08:10:24;;;;;;;3.10;1.20;;;;;;100467.13;;;;107020;1279;64501;-28
2022/01/01 08:12:51;;;;;;;2.20;1.00;;;;;;100466.56;;;;106995;1278;64070;-28
2022/01/01 08:15:18;;;;;;;2.70;1.10;;;;;;100461.93;;;;106972;1278;64022;-27
2022/01/01 08:17:46;;;;;;;3.40;1.30;;;;;;100472.80;;;;106904;1279;64045;-27
2022/01/01 08:20:13;;;;;;;2.80;1.20;;;;;;100469.02;;;;106988;1279;64048;-49
2022/01/01 08:22:40;;;;;;;2.80;1.00;;;;;;100468.42;;;;106934;1279;63889;-43
2022/01/01 08:25:08;;;;;;;2.50;1.00;;;;;;100467.34;;;;106975;1279;66631;-43
2022/01/01 08:27:36;;;;;;;3.40;1.30;;;;;;100469.70;;;;107005;1279;64044;-41
2022/01/01 08:30:04;;;;;;;3.00;1.10;;;;;;100472.75;;;;106961;1279;64009;-43
2022/01/01 08:32:32;;;;;;;2.70;1.10;;;;;;100478.11;;;;106899;1279;64441;-44
2022/01/01 08:34:59;;;;;;;3.00;1.10;;;;;;100481.70;;;;107027;1278;64071;-27
2022/01/01 08:37:26;;;;;;;2.10;0.90;;;;;;100486.24;;;;106994;1278;63948;-28
2022/01/01 08:39:55;;;;;;;2.80;1.00;;;;;;100484.62;;;;107003;1278;63982;-27
2022/01/01 08:42:24;;;;;;;2.70;1.10;;;;;;100487.61;;;;107014;1279;64015;-27
2022/01/01 08:44:51;;;;;;;3.50;1.20;;;;;;100485.29;;;;106960;1278;64063;-35
2022/01/01 08:47:19;;;;;;;2.30;1.00;;;;;;100486.15;;;;106979;1278;63962;-43
2022/01/01 08:49:46;;;;;;;3.10;1.00;;;;;;100491.15;;;;106990;1279;65095;-45
2022/01/01 08:52:13;;;;;;;2.70;1.10;;;;;;100495.69;;;;107013;1279;63950;-44
2022/01/01 08:54:41;;;;;;;2.40;1.00;;;;;;100489.61;;;;106991;1279;64078;-28
2022/01/01 08:57:09;;;;;;;2.40;1.00;;;;;;100486.39;;;;106981;1279;63946;-28
2022/01/01 08:59:37;;;;;;;2.10;1.00;;;;;;100492.45;;;;106940;1279;63996;-28
2022/01/01 09:02:04;;;;;;;2.80;1.20;;;;;;100494.30;;;;106566;1278;572022;-28
2022/01/01 09:04:31;;;;;;;2.70;1.20;;;;;;100490.53;;;;106917;1279;64144;-27
2022/01/01 09:06:59;;;;;;;2.60;1.00;;;;;;100486.45;;;;106964;1279;64536;-30
2022/01/01 09:09:26;;;;;;;3.00;1.20;;;;;;100488.96;;;;106984;1279;64106;-43
2022/01/01 09:11:54;;;;;;;3.30;1.10;;;;;;100489.15;;;;106999;1279;64430;-43
2022/01/01 09:14:21;;;;;;;3.20;1.10;;;;;;100490.09;;;;106897;1281;65631;-27
2022/01/01 09:16:49;;;;;;;2.70;1.00;;;;;;100488.59;;;;106965;1278;64677;-27
2022/01/01 09:19:19;;;;;;;2.90;1.10;;;;;;100485.95;;;;107015;1279;63811;-43
2022/01/01 09:21:46;;;;;;;2.40;1.00;;;;;;100484.11;;;;106964;1278;64092;-42
2022/01/01 09:24:13;;;;;;;3.40;1.10;;;;;;100488.21;;;;106945;1279;64751;-47
2022/01/01 09:26:41;;;;;;;2.80;1.20;;;;;;100491.88;;;;106986;1278;64878;-42
2022/01/01 09:29:10;;;;;;;3.20;1.20;;;;;;100490.36;;;;106976;1279;64671;-46
2022/01/01 09:31:39;;;;;;;2.90;1.10;;;;;;100492.46;;;;106928;1279;64100;-48
2022/01/01 09:34:06;;;;;;;2.80;1.30;;;;;;100494.67;;;;106920;1279;64041;-43
2022/01/01 09:36:35;;;;;;;2.70;1.20;;;;;;100492.36;;;;106972;1278;63995;-43
2022/01/01 09:39:04;;;;;;;3.00;1.40;;;;;;100492.70;;;;106963;1278;64050;-29
2022/01/01 09:41:32;;;;;;;2.80;1.10;;;;;;100489.34;;;;106969;1277;64031;-28
2022/01/01 09:43:59;;;;;;;3.30;1.50;;;;;;100494.52;;;;107007;1279;64370;-27
2022/01/01 09:46:26;;;;;;;2.60;1.20;;;;;;100499.09;;;;106954;1279;63953;-28
2022/01/01 09:48:55;;;;;;;3.20;1.50;;;;;;100498.93;;;;106982;1279;64069;-28
2022/01/01 09:51:22;;;;;;;3.10;1.30;;;;;;100492.52;;;;107017;1279;66757;-29
2022/01/01 09:53:49;;;;;;;2.90;1.40;;;;;;100495.92;;;;106952;1278;64072;-48
2022/01/01 09:56:16;;;;;;;2.40;1.20;;;;;;100493.91;;;;106963;1279;63907;-41
2022/01/01 09:58:45;;;;;;;3.00;1.40;;;;;;100492.71;;;;106982;1279;63480;-41
2022/01/01 10:01:14;;;;;;;3.00;1.40;;;;;;100499.83;;;;106956;1278;64163;-42
2022/01/01 10:03:49;;;;;;;3.40;1.70;;;;;;100500.61;;;;106973;1279;64116;-27
2022/01/01 10:06:19;;;;;;;3.20;1.50;;;;;;100499.73;;;;106946;1279;64079;-33
2022/01/01 10:08:59;;;;;;;3.20;1.70;;;;;;100500.45;;;;106987;1279;64116;-27
2022/01/01 10:11:27;;;;;;;3.40;1.60;;;;;;100495.73;;;;107009;1279;63898;-28
2022/01/01 10:13:55;;;;;;;3.10;1.70;;;;;;100503.52;;;;107057;1279;63911;-28
2022/01/01 10:16:23;;;;;;;3.40;1.50;;;;;;100497.45;;;;106977;1279;64424;-29
2022/01/01 10:18:53;;;;;;;3.30;1.60;;;;;;100504.50;;;;106994;1279;63929;-29
2022/01/01 10:21:24;;;;;;;3.80;1.60;;;;;;100502.27;;;;106997;1279;64018;-30
2022/01/01 10:23:54;;;;;;;3.30;1.80;;;;;;100507.67;;;;106915;1279;63901;-43
2022/01/01 10:29:20;;;;;;;2.90;1.70;;;;;;100515.30;;;;106922;1279;67327;-44
2022/01/01 10:31:59;;;;;;;3.30;1.80;;;;;;100526.70;;;;106968;1278;63983;-43
2022/01/01 10:34:42;;;;;;;3.60;1.90;;;;;;100520.47;;;;106947;1279;64033;-45
2022/01/01 10:37:11;;;;;;;3.70;1.90;;;;;;100518.37;;;;106969;1279;64077;-42
2022/01/01 10:39:50;;;;;;;2.90;1.60;;;;;;100522.89;;;;106995;1278;63971;-44
2022/01/01 10:42:20;;;;;;;3.10;1.80;;;;;;100517.84;;;;106964;1279;66389;-43
2022/01/01 10:44:50;;;;;;;3.40;1.70;;;;;;100523.66;;;;107000;1278;64376;-28
2022/01/01 10:47:27;;;;;;;3.50;2.10;;;;;;100538.11;;;;106964;1279;63950;-26
2022/01/01 10:52:37;;;;;;;3.60;1.90;;;;;;100552.95;;;;106953;1279;64081;-27
2022/01/01 10:55:07;;;;;;;3.60;1.80;;;;;;100555.52;;;;106956;1279;64091;-43
2022/01/01 10:57:38;;;;;;;3.50;2.10;;;;;;100559.06;;;;106935;1279;63951;-42
2022/01/01 11:00:16;;;;;;;3.40;2.00;;;;;;100563.42;;;;107019;1278;63903;-42
2022/01/01 11:02:55;;;;;;;3.50;2.00;;;;;;100566.40;;;;107007;1278;63975;-43
2022/01/01 11:05:37;;;;;;;3.70;2.10;;;;;;100567.63;;;;106861;1279;63938;-26
2022/01/01 11:08:08;;;;;;;3.80;2.20;;;;;;100568.08;;;;107003;1278;66556;-37
2022/01/01 11:10:38;;;;;;;3.50;1.80;;;;;;100567.16;;;;107009;1278;64013;-43
2022/01/01 11:13:06;;;;;;;3.60;2.00;;;;;;100574.08;;;;106938;1279;64086;-37
2022/01/01 11:15:34;;;;;;;3.20;1.90;;;;;;100574.89;;;;106957;1279;63959;-42
2022/01/01 11:18:03;;;;;;;3.50;1.90;;;;;;100577.37;;;;107035;1279;63982;-42
2022/01/01 11:20:34;;;;;;;3.90;2.10;;;;;;100586.00;;;;107001;1279;65622;-28
2022/01/01 11:23:05;;;;;;;3.90;2.00;;;;;;100588.05;;;;106981;1279;63962;-27
2022/01/01 11:25:35;;;;;;;3.30;1.90;;;;;;100584.44;;;;107000;1278;64373;-27
2022/01/01 11:28:10;;;;;;;4.20;2.00;;;;;;100587.94;;;;106938;1279;64128;-27
2022/01/01 11:30:47;;;;;;;4.10;2.10;;;;;;100590.00;;;;106945;1279;64036;-42
2022/01/01 11:33:19;;;;;;;4.20;2.10;;;;;;100589.55;;;;106988;1279;66805;-28
2022/01/01 11:35:57;;;;;;;3.50;1.90;;;;;;100591.76;;;;107000;1278;64028;-27
2022/01/01 11:38:27;;;;;;;3.90;2.30;;;;;;100598.17;;;;106977;1279;63936;-27
2022/01/01 11:41:08;;;;;;;3.90;2.00;;;;;;100602.67;;;;106966;1278;64177;-27
2022/01/01 11:43:53;;;;;;;3.50;1.80;;;;;;100605.37;;;;107000;1277;63938;-42
2022/01/01 11:46:26;;;;;;;3.20;1.60;;;;;;100611.02;;;;106944;1279;66543;-42
2022/01/01 11:48:58;;;;;;;3.90;1.90;;;;;;100613.20;;;;106963;1278;63899;-43
2022/01/01 11:51:33;;;;;;;3.50;1.70;;;;;;100620.19;;;;107016;1278;63949;-41
2022/01/01 11:54:17;;;;;;;2.90;1.50;;;;;;100622.23;;;;106937;1279;63999;-27
2022/01/01 11:56:50;;;;;;;3.60;1.60;;;;;;100628.19;;;;107012;1279;64076;-27
2022/01/01 11:59:27;;;;;;;3.00;1.30;;;;;;100629.23;;;;107007;1280;65056;-42
2022/01/01 12:01:58;;;;;;;3.70;1.80;;;;;;100632.34;;;;106931;1279;64039;-43
2022/01/01 12:04:33;;;;;;;2.40;1.40;;;;;;100635.56;;;;106994;1278;63956;-42
2022/01/01 12:07:12;;;;;;;3.40;1.60;;;;;;100641.14;;;;106963;1280;64054;-41
2022/01/01 12:10:07;;;;;;;3.10;1.50;;;;;;100638.67;;;;106918;1281;63999;-27
2022/01/01 12:12:53;;;;;;;3.40;1.60;;;;;;100642.84;;;;106977;1278;65042;-26
2022/01/01 12:15:26;;;;;;;2.80;1.30;;;;;;100658.04;;;;106981;1278;64034;-29
2022/01/01 12:18:19;;;;;;;3.00;1.40;;;;;;100655.73;;;;106941;1281;64001;-28
2022/01/01 12:20:54;;;;;;;3.10;1.30;;;;;;100660.30;;;;106984;1278;63927;-27
2022/01/01 12:23:23;;;;;;;3.30;1.50;;;;;;100653.92;;;;106899;1281;64071;-27
2022/01/01 12:25:53;;;;;;;2.80;1.30;;;;;;100653.61;;;;107043;1279;65928;-28
2022/01/01 12:28:32;;;;;;;3.20;1.20;;;;;;100659.42;;;;106999;1278;63923;-46
2022/01/01 12:31:12;;;;;;;3.30;1.40;;;;;;100662.56;;;;106993;1278;64061;-45
2022/01/01 12:33:43;;;;;;;3.60;1.60;;;;;;100661.08;;;;106958;1282;63933;-42
2022/01/01 12:36:16;;;;;;;3.60;1.50;;;;;;100663.98;;;;106914;1281;63945;-46
2022/01/01 12:38:54;;;;;;;3.10;1.20;;;;;;100666.85;;;;107027;1282;66612;-40
2022/01/01 12:41:32;;;;;;;3.00;1.30;;;;;;100672.67;;;;106936;1281;63928;-28
2022/01/01 12:44:25;;;;;;;3.50;1.40;;;;;;100670.92;;;;107008;1277;64723;-43
2022/01/01 12:46:59;;;;;;;3.60;1.40;;;;;;100674.45;;;;106951;1278;63917;-43
2022/01/01 12:49:26;;;;;;;3.20;1.40;;;;;;100675.18;;;;107008;1277;64047;-28
2022/01/01 12:51:56;;;;;;;4.10;1.50;;;;;;100678.52;;;;106985;1277;65252;-27
2022/01/01 12:54:26;;;;;;;3.50;1.40;;;;;;100686.09;;;;106948;1281;64160;-28
2022/01/01 12:56:54;;;;;;;3.60;1.20;;;;;;100683.58;;;;107006;1281;64023;-28
2022/01/01 12:59:21;;;;;;;2.60;1.10;;;;;;100685.91;;;;106968;1279;63927;-48
2022/01/01 13:01:53;;;;;;;3.40;1.20;;;;;;100689.89;;;;106985;1279;64045;-43
2022/01/01 13:04:27;;;;;;;4.50;1.20;;;;;;100695.67;;;;106914;1281;66114;-27
2022/01/01 13:06:59;;;;;;;4.30;1.30;;;;;;100714.89;;;;106988;1278;64050;-27